Time;durP1;ratioP1;P1;durP2;ratioP2;P2;SDS_P1;SDS_P2;PMS_P1;PMS_P2;Temp;Humidity;BMP_temperature;BMP_pressure;BME280_temperature;BME280_humidity;BME280_pressure;Samples;Min_cycle;Max_cycle;Signal;HPM_P1;HPM_P2
2024/01/19 00:01:21;;;;;;;15.93;9.60;;;2.50;99.90;;;;;;5091562;28;20052;-73
2024/01/19 00:03:48;;;;;;;12.00;8.98;;;2.50;99.90;;;;;;5091864;28;20066;-72
2024/01/19 00:06:13;;;;;;;11.75;8.88;;;2.50;99.90;;;;;;5091202;28;20029;-74
2024/01/19 00:08:39;;;;;;;12.68;8.85;;;2.50;99.90;;;;;;5091025;28;20028;-73
2024/01/19 00:11:05;;;;;;;11.52;8.43;;;2.50;99.90;;;;;;5092496;28;20043;-72
2024/01/19 00:13:31;;;;;;;12.38;8.45;;;2.50;99.90;;;;;;5090890;28;20020;-73
2024/01/19 00:15:57;;;;;;;13.73;9.18;;;2.50;99.90;;;;;;5091258;28;20051;-74
2024/01/19 00:18:25;;;;;;;11.57;7.70;;;2.50;99.90;;;;;;5090298;28;20119;-72
2024/01/19 00:20:50;;;;;;;9.77;8.00;;;2.50;99.90;;;;;;5091490;28;20032;-75
2024/01/19 00:23:16;;;;;;;11.10;8.55;;;2.50;99.90;;;;;;5091844;28;20097;-73
2024/01/19 00:25:41;;;;;;;10.70;8.40;;;2.50;99.90;;;;;;5090351;28;20089;-72
2024/01/19 00:28:07;;;;;;;11.13;8.07;;;2.50;99.90;;;;;;5089936;28;20056;-73
2024/01/19 00:30:33;;;;;;;10.65;7.82;;;2.40;99.90;;;;;;5091644;28;20036;-72
2024/01/19 00:32:58;;;;;;;11.15;7.70;;;2.40;99.90;;;;;;5089929;28;20110;-73
2024/01/19 00:35:24;;;;;;;11.10;8.20;;;2.40;99.90;;;;;;5091126;28;20020;-73
2024/01/19 00:37:50;;;;;;;11.70;8.55;;;2.40;99.90;;;;;;5091418;28;20060;-73
2024/01/19 00:40:15;;;;;;;10.27;7.88;;;2.40;99.90;;;;;;5090701;28;20024;-73
2024/01/19 00:42:42;;;;;;;12.88;8.25;;;2.40;99.90;;;;;;5091988;28;20031;-73
2024/01/19 00:45:09;;;;;;;12.32;7.82;;;2.30;99.90;;;;;;5110505;28;20069;-73
2024/01/19 00:47:35;;;;;;;12.77;7.50;;;2.30;99.90;;;;;;5115411;28;20023;-74
2024/01/19 00:50:02;;;;;;;11.52;8.02;;;2.30;99.90;;;;;;5100745;28;20039;-73
2024/01/19 00:52:28;;;;;;;11.20;7.97;;;2.30;99.90;;;;;;5100804;28;20485;-72
2024/01/19 00:54:54;;;;;;;12.00;7.80;;;2.30;99.90;;;;;;5109498;28;20022;-76
2024/01/19 00:57:19;;;;;;;11.75;7.55;;;2.30;99.90;;;;;;5100099;28;20198;-73
2024/01/19 00:59:45;;;;;;;11.05;7.80;;;2.30;99.90;;;;;;5111093;28;20083;-73
2024/01/19 01:02:10;;;;;;;11.98;8.30;;;2.20;99.90;;;;;;5098493;28;20448;-73
2024/01/19 01:04:36;;;;;;;10.15;7.38;;;2.20;99.90;;;;;;5106364;28;20524;-73
2024/01/19 01:07:02;;;;;;;13.70;8.38;;;2.20;99.90;;;;;;5106148;28;20028;-73
2024/01/19 01:09:28;;;;;;;11.80;8.00;;;2.20;99.90;;;;;;5101115;28;20491;-73
2024/01/19 01:11:53;;;;;;;10.63;7.53;;;2.20;99.90;;;;;;5094806;28;20035;-72
2024/01/19 01:14:19;;;;;;;10.70;7.65;;;2.20;99.90;;;;;;5102123;28;20024;-73
2024/01/19 01:16:44;;;;;;;10.68;7.85;;;2.20;99.90;;;;;;5111228;28;20020;-75
2024/01/19 01:19:10;;;;;;;13.70;8.45;;;2.20;99.90;;;;;;5104141;28;20419;-72
2024/01/19 01:21:36;;;;;;;11.10;7.75;;;2.20;99.90;;;;;;5106778;28;20032;-72
2024/01/19 01:24:01;;;;;;;13.95;7.75;;;2.20;99.90;;;;;;5112150;28;20055;-74
2024/01/19 01:26:27;;;;;;;12.73;7.63;;;2.20;99.90;;;;;;5113700;28;20454;-73
2024/01/19 01:28:52;;;;;;;10.02;6.78;;;2.10;99.90;;;;;;5110940;28;20106;-74
2024/01/19 01:31:37;;;;;;;11.35;7.03;;;2.10;99.90;;;;;;5092513;28;20109;-73
2024/01/19 01:34:03;;;;;;;7.88;5.75;;;2.10;99.90;;;;;;5094220;28;20179;-73
2024/01/19 01:36:29;;;;;;;12.88;6.45;;;2.10;99.10;;;;;;5094351;28;20087;-72
2024/01/19 01:38:55;;;;;;;9.55;6.05;;;2.10;99.00;;;;;;5094615;28;20039;-73
2024/01/19 01:41:21;;;;;;;9.18;5.60;;;2.10;98.70;;;;;;5093776;28;20032;-73
2024/01/19 01:43:46;;;;;;;8.38;5.50;;;2.10;98.80;;;;;;5093964;28;20024;-73
2024/01/19 01:46:12;;;;;;;10.25;6.03;;;2.10;98.70;;;;;;5094008;28;20178;-73
2024/01/19 01:48:38;;;;;;;10.20;5.80;;;2.10;99.00;;;;;;5093671;28;20029;-72
2024/01/19 01:51:04;;;;;;;8.60;5.65;;;2.10;99.00;;;;;;5092211;28;20467;-73
2024/01/19 01:53:31;;;;;;;6.38;4.88;;;2.10;98.80;;;;;;5094355;28;20069;-73
2024/01/19 01:55:57;;;;;;;8.15;4.85;;;2.10;98.30;;;;;;5093209;28;20387;-73
2024/01/19 01:58:23;;;;;;;9.02;4.88;;;2.00;97.40;;;;;;5092001;28;20036;-72
2024/01/19 02:00:50;;;;;;;9.00;4.63;;;2.00;97.30;;;;;;5092171;28;20048;-72
2024/01/19 02:03:17;;;;;;;8.65;5.20;;;2.00;97.50;;;;;;5093285;28;20457;-74
2024/01/19 02:05:42;;;;;;;9.05;5.25;;;2.00;97.70;;;;;;5093739;28;20295;-72
2024/01/19 02:08:08;;;;;;;7.82;3.75;;;2.00;97.80;;;;;;5093128;28;20050;-72
2024/01/19 02:10:34;;;;;;;7.20;4.43;;;1.90;97.20;;;;;;5093234;28;20498;-73
2024/01/19 02:12:59;;;;;;;5.40;3.72;;;1.90;96.70;;;;;;5093317;28;20024;-72
2024/01/19 02:15:26;;;;;;;7.15;4.28;;;1.90;96.70;;;;;;5091723;28;20058;-72
2024/01/19 02:17:52;;;;;;;6.30;3.55;;;1.80;96.00;;;;;;5093561;28;20035;-73
2024/01/19 02:20:18;;;;;;;5.32;3.58;;;1.80;96.10;;;;;;5092904;28;20036;-72
2024/01/19 02:22:46;;;;;;;8.40;3.90;;;1.80;96.10;;;;;;5093267;28;20190;-72
2024/01/19 02:25:12;;;;;;;5.28;3.53;;;1.80;95.90;;;;;;5093013;28;20500;-73
2024/01/19 02:27:38;;;;;;;5.88;3.70;;;1.80;95.50;;;;;;5093035;28;20098;-73
2024/01/19 02:30:10;;;;;;;5.20;3.50;;;1.90;95.30;;;;;;5092638;28;20111;-75
2024/01/19 02:32:36;;;;;;;5.55;3.47;;;1.90;95.40;;;;;;5093340;28;20479;-73
2024/01/19 02:35:03;;;;;;;4.68;3.58;;;1.90;95.20;;;;;;5093110;28;20093;-73
2024/01/19 02:37:29;;;;;;;4.13;3.10;;;1.90;95.20;;;;;;5091521;28;20051;-73
2024/01/19 02:39:55;;;;;;;7.68;3.70;;;1.90;95.30;;;;;;5093084;28;20480;-72
2024/01/19 02:42:20;;;;;;;4.90;3.38;;;1.90;95.00;;;;;;5092184;28;20027;-73
2024/01/19 02:44:46;;;;;;;7.88;3.65;;;1.90;94.60;;;;;;5091411;28;20413;-73
2024/01/19 02:47:11;;;;;;;5.22;2.80;;;1.90;94.40;;;;;;5090758;28;20031;-73
2024/01/19 02:49:37;;;;;;;6.88;3.10;;;1.90;94.30;;;;;;5092657;28;20024;-73
2024/01/19 02:52:03;;;;;;;5.78;3.53;;;1.90;94.30;;;;;;5104750;28;20088;-73
2024/01/19 02:54:29;;;;;;;5.90;3.20;;;1.90;94.30;;;;;;5112924;28;20024;-73
2024/01/19 02:56:54;;;;;;;7.32;3.00;;;1.90;94.30;;;;;;5112951;28;20073;-73
2024/01/19 02:59:20;;;;;;;8.70;3.17;;;1.90;94.30;;;;;;5112527;28;21316;-72
2024/01/19 03:01:46;;;;;;;6.47;3.30;;;1.90;93.90;;;;;;5113050;28;20065;-73
2024/01/19 03:04:12;;;;;;;6.80;3.30;;;1.90;94.00;;;;;;5111124;28;20028;-72
2024/01/19 03:06:37;;;;;;;4.70;3.10;;;1.90;93.70;;;;;;5111774;28;20126;-73
2024/01/19 03:09:03;;;;;;;5.60;3.13;;;1.80;93.50;;;;;;5112350;28;20037;-72
2024/01/19 03:11:29;;;;;;;6.28;3.33;;;1.80;93.60;;;;;;5110686;28;20448;-72
2024/01/19 03:13:54;;;;;;;7.78;3.05;;;1.80;93.70;;;;;;5112390;28;20035;-71
2024/01/19 03:16:20;;;;;;;6.35;3.40;;;1.90;93.50;;;;;;5110849;28;20024;-72
2024/01/19 03:18:46;;;;;;;9.40;3.55;;;1.90;93.60;;;;;;5112420;28;20027;-72
2024/01/19 03:21:12;;;;;;;6.13;3.75;;;1.90;93.40;;;;;;5110740;28;20027;-72
2024/01/19 03:23:38;;;;;;;7.88;3.85;;;1.90;93.40;;;;;;5112421;28;20026;-73
2024/01/19 03:26:04;;;;;;;5.47;2.97;;;1.90;92.90;;;;;;5112306;28;20455;-74
2024/01/19 03:28:30;;;;;;;6.38;3.40;;;1.90;93.00;;;;;;5110734;28;20147;-73
2024/01/19 03:30:56;;;;;;;7.43;3.35;;;1.90;92.70;;;;;;5092999;28;20118;-72
2024/01/19 03:33:21;;;;;;;5.57;2.80;;;1.90;92.30;;;;;;5092652;28;20291;-73
2024/01/19 03:35:47;;;;;;;5.82;3.60;;;1.90;92.10;;;;;;5091782;28;20078;-73
2024/01/19 03:38:13;;;;;;;7.13;3.28;;;1.90;91.80;;;;;;5091741;28;20059;-73
2024/01/19 03:40:38;;;;;;;5.55;3.30;;;1.90;91.60;;;;;;5092323;28;20111;-74
2024/01/19 03:43:04;;;;;;;4.43;3.17;;;1.90;91.50;;;;;;5092650;28;20024;-73
2024/01/19 03:45:29;;;;;;;5.68;3.33;;;1.90;91.40;;;;;;5090201;28;20024;-73
2024/01/19 03:47:55;;;;;;;4.93;3.15;;;1.90;91.40;;;;;;5091792;28;20366;-72
2024/01/19 03:50:22;;;;;;;4.90;3.13;;;1.90;91.40;;;;;;5091668;28;20063;-72
2024/01/19 03:52:48;;;;;;;7.03;3.15;;;1.80;91.40;;;;;;5092206;28;20074;-73
2024/01/19 03:55:16;;;;;;;7.18;2.85;;;1.80;91.30;;;;;;5091283;28;20538;-73
2024/01/19 03:57:41;;;;;;;6.57;3.60;;;1.80;91.20;;;;;;5091809;28;20020;-73
2024/01/19 04:00:08;;;;;;;7.32;3.40;;;1.80;91.40;;;;;;5091823;28;20527;-72
2024/01/19 04:02:34;;;;;;;8.10;3.20;;;1.80;91.10;;;;;;5091407;28;20028;-73
2024/01/19 04:05:00;;;;;;;9.73;3.13;;;1.80;90.90;;;;;;5091488;28;20404;-73
2024/01/19 04:07:25;;;;;;;5.60;2.80;;;1.80;90.60;;;;;;5090709;28;20488;-73
2024/01/19 04:09:51;;;;;;;3.55;2.58;;;1.70;90.50;;;;;;5091783;28;20040;-73
2024/01/19 04:12:17;;;;;;;6.65;3.20;;;1.70;90.20;;;;;;5090495;28;20032;-73
2024/01/19 04:14:44;;;;;;;4.85;3.30;;;1.60;90.20;;;;;;5091635;28;20056;-73
2024/01/19 04:17:10;;;;;;;9.68;3.78;;;1.70;90.30;;;;;;5091553;28;20076;-73
2024/01/19 04:19:37;;;;;;;5.15;3.00;;;1.70;90.30;;;;;;5093694;28;20039;-73
2024/01/19 04:22:02;;;;;;;7.82;3.28;;;1.60;90.10;;;;;;5094168;28;20048;-73
2024/01/19 04:24:28;;;;;;;5.90;2.90;;;1.60;90.20;;;;;;5094330;28;20055;-73
2024/01/19 04:27:00;;;;;;;7.43;3.05;;;1.60;90.20;;;;;;5094601;28;20053;-72
2024/01/19 04:29:26;;;;;;;6.15;2.90;;;1.60;90.10;;;;;;5094394;28;20468;-73
2024/01/19 04:31:52;;;;;;;6.25;2.75;;;1.60;90.10;;;;;;5094993;28;20022;-73
2024/01/19 04:34:18;;;;;;;5.78;2.47;;;1.60;90.00;;;;;;5093662;28;20035;-71
2024/01/19 04:36:45;;;;;;;4.53;2.65;;;1.60;90.20;;;;;;5095654;28;20458;-73
2024/01/19 04:39:11;;;;;;;6.65;3.00;;;1.60;90.20;;;;;;5094985;28;20032;-73
2024/01/19 04:41:37;;;;;;;4.80;3.10;;;1.60;90.20;;;;;;5094960;28;20031;-73
2024/01/19 04:44:02;;;;;;;7.10;2.80;;;1.60;90.30;;;;;;5093837;28;20024;-73
2024/01/19 04:46:28;;;;;;;7.15;3.03;;;1.60;89.80;;;;;;5094748;28;20024;-73
2024/01/19 04:48:54;;;;;;;6.05;2.75;;;1.60;89.30;;;;;;5096328;28;20070;-74
2024/01/19 04:51:19;;;;;;;6.40;2.67;;;1.60;89.20;;;;;;5094710;28;20051;-73
2024/01/19 04:53:46;;;;;;;7.85;3.10;;;1.60;89.30;;;;;;5094791;28;20057;-73
2024/01/19 04:56:11;;;;;;;7.07;3.45;;;1.60;89.10;;;;;;5094577;28;20023;-73
2024/01/19 04:58:37;;;;;;;6.65;2.97;;;1.60;89.30;;;;;;5094685;28;20024;-73
2024/01/19 05:01:04;;;;;;;6.00;2.90;;;1.60;89.60;;;;;;5094385;28;20439;-72
2024/01/19 05:03:30;;;;;;;6.45;2.88;;;1.60;89.80;;;;;;5090809;28;20044;-73
2024/01/19 05:05:55;;;;;;;5.45;2.90;;;1.60;90.00;;;;;;5093442;28;20020;-73
2024/01/19 05:08:21;;;;;;;6.47;2.90;;;1.60;90.00;;;;;;5094425;28;20032;-73
2024/01/19 05:10:47;;;;;;;7.35;2.50;;;1.60;90.10;;;;;;5095089;28;20469;-73
2024/01/19 05:13:12;;;;;;;4.85;2.42;;;1.60;89.80;;;;;;5095227;28;20028;-73
2024/01/19 05:15:38;;;;;;;6.68;2.97;;;1.60;89.50;;;;;;5094423;28;20060;-73
2024/01/19 05:18:04;;;;;;;4.72;2.50;;;1.60;89.30;;;;;;5095004;28;20107;-73
2024/01/19 05:20:30;;;;;;;4.05;2.67;;;1.60;89.80;;;;;;5094290;28;20063;-73
2024/01/19 05:22:55;;;;;;;9.35;3.38;;;1.60;90.00;;;;;;5094932;28;20055;-73
2024/01/19 05:25:21;;;;;;;6.47;2.90;;;1.60;90.10;;;;;;5094679;28;20377;-75
2024/01/19 05:27:51;;;;;;;7.43;3.10;;;1.60;90.00;;;;;;5094604;28;20031;-74
2024/01/19 05:30:17;;;;;;;7.60;2.85;;;1.60;90.10;;;;;;5092631;28;20131;-74
2024/01/19 05:32:42;;;;;;;4.50;2.15;;;1.60;90.00;;;;;;5093034;28;20028;-73
2024/01/19 05:35:08;;;;;;;5.88;2.85;;;1.70;89.40;;;;;;5094233;28;20054;-74
2024/01/19 05:37:34;;;;;;;6.03;2.42;;;1.70;89.10;;;;;;5094339;28;20024;-74
2024/01/19 05:40:00;;;;;;;8.70;2.55;;;1.70;89.40;;;;;;5093295;28;20377;-73
2024/01/19 05:42:25;;;;;;;4.50;2.17;;;1.70;89.40;;;;;;5092415;28;20028;-74
2024/01/19 05:44:51;;;;;;;6.30;2.17;;;1.70;89.30;;;;;;5094438;28;20414;-75
2024/01/19 05:47:16;;;;;;;4.10;2.20;;;1.70;89.00;;;;;;5093183;28;20024;-73
2024/01/19 05:49:42;;;;;;;5.97;2.05;;;1.70;88.70;;;;;;5093621;28;20091;-74
2024/01/19 05:52:08;;;;;;;2.63;1.65;;;1.70;88.90;;;;;;5094514;28;20162;-73
2024/01/19 05:54:34;;;;;;;6.50;2.08;;;1.70;88.50;;;;;;5093818;28;20028;-74
2024/01/19 05:57:00;;;;;;;3.05;1.80;;;1.70;88.50;;;;;;5094220;28;20020;-74
2024/01/19 05:59:27;;;;;;;2.83;1.80;;;1.70;88.60;;;;;;5093318;28;20074;-75
2024/01/19 06:01:53;;;;;;;4.00;1.70;;;1.70;88.10;;;;;;5090430;28;20464;-74
2024/01/19 06:04:18;;;;;;;3.20;1.77;;;1.70;88.00;;;;;;5093540;28;20028;-74
2024/01/19 06:06:44;;;;;;;6.40;2.40;;;1.70;88.00;;;;;;5093346;28;20024;-74
2024/01/19 06:09:10;;;;;;;4.43;1.98;;;1.60;88.10;;;;;;5093931;28;20024;-74
2024/01/19 06:11:36;;;;;;;5.70;1.75;;;1.70;88.50;;;;;;5071843;28;20060;-73
2024/01/19 06:14:02;;;;;;;4.57;1.92;;;1.70;88.50;;;;;;5072338;28;20079;-75
2024/01/19 06:16:29;;;;;;;7.75;3.05;;;1.70;88.40;;;;;;5071767;28;20416;-75
2024/01/19 06:18:54;;;;;;;4.13;1.80;;;1.70;88.10;;;;;;5091129;28;20028;-73
2024/01/19 06:21:20;;;;;;;5.72;1.90;;;1.70;87.90;;;;;;5093025;28;20417;-74
2024/01/19 06:23:46;;;;;;;3.78;1.83;;;1.70;87.50;;;;;;5091528;28;20103;-73
2024/01/19 06:26:12;;;;;;;5.15;2.03;;;1.70;86.70;;;;;;5093181;28;20024;-74
2024/01/19 06:28:38;;;;;;;4.18;2.28;;;1.70;87.60;;;;;;5091737;28;20031;-74
2024/01/19 06:31:05;;;;;;;7.57;2.35;;;1.70;87.50;;;;;;5092815;28;20024;-74
2024/01/19 06:33:31;;;;;;;5.70;2.33;;;1.70;87.70;;;;;;5091240;28;20028;-75
2024/01/19 06:35:57;;;;;;;7.82;2.30;;;1.70;87.90;;;;;;5092963;28;20170;-74
2024/01/19 06:38:23;;;;;;;4.05;1.98;;;1.70;88.10;;;;;;5091375;28;20132;-74
2024/01/19 06:40:49;;;;;;;4.70;2.20;;;1.70;87.70;;;;;;5093977;28;20096;-75
2024/01/19 06:43:15;;;;;;;3.83;1.95;;;1.70;87.80;;;;;;5091526;28;20020;-75
2024/01/19 06:45:41;;;;;;;5.72;2.10;;;1.70;87.70;;;;;;5092013;28;20606;-75
2024/01/19 06:48:08;;;;;;;4.38;2.13;;;1.70;87.60;;;;;;5092861;28;20013;-74
2024/01/19 06:50:33;;;;;;;3.38;1.70;;;1.80;87.90;;;;;;5091390;28;20063;-74
2024/01/19 06:53:00;;;;;;;8.57;1.95;;;1.70;87.70;;;;;;5092432;28;20121;-75
2024/01/19 06:55:27;;;;;;;6.38;2.20;;;1.80;87.80;;;;;;5092129;28;20023;-74
2024/01/19 06:57:53;;;;;;;6.32;2.55;;;1.80;87.50;;;;;;5092456;28;20031;-77
2024/01/19 07:00:19;;;;;;;7.22;2.00;;;1.80;87.30;;;;;;5091919;28;20051;-77
2024/01/19 07:02:45;;;;;;;5.85;2.03;;;1.70;87.80;;;;;;5089779;28;20042;-76
2024/01/19 07:05:10;;;;;;;7.88;1.88;;;1.80;87.80;;;;;;5092043;28;20389;-77
2024/01/19 07:07:36;;;;;;;4.80;2.10;;;1.80;87.50;;;;;;5092063;28;20032;-78
2024/01/19 07:10:02;;;;;;;4.82;1.73;;;1.80;87.30;;;;;;5091642;28;20043;-78
2024/01/19 07:12:28;;;;;;;5.45;2.33;;;1.80;87.30;;;;;;5091067;28;20601;-77
2024/01/19 07:14:53;;;;;;;7.50;2.75;;;1.80;87.50;;;;;;5092852;28;20025;-77
2024/01/19 07:17:19;;;;;;;4.28;2.00;;;1.80;87.50;;;;;;5092240;28;20032;-78
2024/01/19 07:19:45;;;;;;;4.57;1.98;;;1.80;86.50;;;;;;5092197;28;20249;-78
2024/01/19 07:22:10;;;;;;;5.07;2.50;;;1.80;85.80;;;;;;5092527;28;20385;-78
2024/01/19 07:24:36;;;;;;;7.38;2.83;;;1.80;86.00;;;;;;5092143;28;20043;-77
2024/01/19 07:27:03;;;;;;;5.22;2.20;;;1.80;85.90;;;;;;5092159;28;20110;-77
2024/01/19 07:29:30;;;;;;;7.38;2.97;;;1.70;86.20;;;;;;5092244;28;20032;-78
2024/01/19 07:31:56;;;;;;;4.63;2.55;;;1.70;86.40;;;;;;5092334;28;20063;-77
2024/01/19 07:34:21;;;;;;;5.90;2.45;;;1.70;87.00;;;;;;5092179;28;20516;-78
2024/01/19 07:36:47;;;;;;;6.20;2.63;;;1.70;87.30;;;;;;5090639;28;20026;-79
2024/01/19 07:39:13;;;;;;;6.15;2.58;;;1.80;87.00;;;;;;5093233;28;20397;-78
2024/01/19 07:41:38;;;;;;;8.55;2.80;;;1.80;87.10;;;;;;5091721;28;20032;-78
2024/01/19 07:44:04;;;;;;;4.90;2.75;;;1.80;87.20;;;;;;5092097;28;20516;-78
2024/01/19 07:46:30;;;;;;;4.90;2.88;;;1.80;87.00;;;;;;5090026;28;20056;-78
2024/01/19 07:49:20;;;;;;;6.45;2.85;;;1.80;87.00;;;;;;5092087;28;20024;-79
2024/01/19 07:51:46;;;;;;;5.60;2.90;;;1.80;87.20;;;;;;5090141;28;20032;-77
2024/01/19 07:54:12;;;;;;;5.80;2.90;;;1.80;86.60;;;;;;5091403;28;20298;-77
2024/01/19 07:56:37;;;;;;;10.35;2.90;;;1.80;86.80;;;;;;5091284;28;20031;-77
2024/01/19 07:59:03;;;;;;;5.13;3.00;;;1.80;87.10;;;;;;5091396;28;20388;-76
2024/01/19 08:01:29;;;;;;;7.10;3.42;;;1.80;86.80;;;;;;5090888;28;20111;-78
2024/01/19 08:03:54;;;;;;;6.28;3.67;;;1.80;87.00;;;;;;5090251;28;20035;-77
2024/01/19 08:06:20;;;;;;;6.60;3.42;;;1.80;86.50;;;;;;5091988;28;20016;-77
2024/01/19 08:08:46;;;;;;;4.80;3.05;;;1.80;86.80;;;;;;5090211;28;20024;-77
2024/01/19 08:11:11;;;;;;;5.85;3.25;;;1.80;87.00;;;;;;5091265;28;20044;-77
2024/01/19 08:13:37;;;;;;;6.00;3.60;;;1.90;86.60;;;;;;5091373;28;20032;-77
2024/01/19 08:16:06;;;;;;;9.52;3.80;;;1.90;85.60;;;;;;5091606;28;20031;-77
2024/01/19 08:18:33;;;;;;;8.32;3.38;;;1.90;85.20;;;;;;5091585;28;20123;-79
2024/01/19 08:21:01;;;;;;;9.80;3.80;;;1.90;85.10;;;;;;5090208;28;20077;-77
2024/01/19 08:23:27;;;;;;;6.15;3.47;;;1.80;84.90;;;;;;5091841;28;20047;-77
2024/01/19 08:25:52;;;;;;;5.68;3.85;;;1.90;84.70;;;;;;5091242;28;20036;-78
2024/01/19 08:28:18;;;;;;;8.77;3.63;;;1.90;84.60;;;;;;5091262;28;20024;-78
2024/01/19 08:30:44;;;;;;;7.45;4.00;;;1.90;84.70;;;;;;5091097;28;20148;-78
2024/01/19 08:33:09;;;;;;;8.38;4.00;;;1.90;84.60;;;;;;5091533;28;20033;-77
2024/01/19 08:35:35;;;;;;;8.18;3.75;;;1.90;84.80;;;;;;5091064;28;20051;-78
2024/01/19 08:38:01;;;;;;;9.35;4.75;;;1.90;85.00;;;;;;5091550;28;20020;-77
2024/01/19 08:40:27;;;;;;;9.38;4.10;;;1.90;84.70;;;;;;5092605;28;20036;-77
2024/01/19 08:42:52;;;;;;;7.00;4.13;;;1.90;84.40;;;;;;5090954;28;20020;-78
2024/01/19 08:45:18;;;;;;;7.72;4.05;;;1.90;84.40;;;;;;5091578;28;20028;-77
2024/01/19 08:47:43;;;;;;;9.27;4.60;;;1.90;84.40;;;;;;5090815;28;20024;-77
2024/01/19 08:50:09;;;;;;;9.25;4.40;;;1.90;84.10;;;;;;5091131;28;20028;-77
2024/01/19 08:52:35;;;;;;;10.10;4.43;;;1.90;83.70;;;;;;5104159;28;20023;-78
2024/01/19 08:55:00;;;;;;;8.25;4.28;;;1.90;83.70;;;;;;5110083;28;20028;-78
2024/01/19 08:57:26;;;;;;;12.55;5.03;;;1.90;83.60;;;;;;5111701;28;20030;-77
2024/01/19 08:59:52;;;;;;;8.98;4.25;;;1.90;83.70;;;;;;5111147;28;20052;-77
2024/01/19 09:02:18;;;;;;;7.57;4.13;;;1.90;83.30;;;;;;5111475;28;20480;-77
2024/01/19 09:04:44;;;;;;;7.38;4.18;;;1.90;83.10;;;;;;5111466;28;20031;-77
2024/01/19 09:07:10;;;;;;;11.10;4.80;;;1.90;82.60;;;;;;5114835;28;20054;-77
2024/01/19 09:09:37;;;;;;;7.63;4.95;;;1.90;82.90;;;;;;5115335;28;20108;-78
2024/01/19 09:12:03;;;;;;;8.73;4.40;;;1.90;83.10;;;;;;5114685;28;20127;-77
2024/01/19 09:14:28;;;;;;;8.43;4.78;;;1.90;82.70;;;;;;5115517;28;20027;-78
2024/01/19 09:16:54;;;;;;;9.82;4.65;;;1.90;82.50;;;;;;5115219;28;20517;-78
2024/01/19 09:19:20;;;;;;;8.80;5.03;;;1.90;82.60;;;;;;5113822;28;20471;-78
2024/01/19 09:21:45;;;;;;;10.75;5.35;;;1.90;83.00;;;;;;5114935;28;20454;-77
2024/01/19 09:24:12;;;;;;;6.95;4.25;;;1.90;83.10;;;;;;5113913;28;20076;-78
2024/01/19 09:26:38;;;;;;;8.52;4.47;;;1.90;83.30;;;;;;5114815;28;20416;-78
2024/01/19 09:29:04;;;;;;;10.82;5.15;;;1.90;82.90;;;;;;5115184;28;20169;-76
2024/01/19 09:31:30;;;;;;;10.82;4.95;;;1.90;82.90;;;;;;5114926;28;20137;-77
2024/01/19 09:33:56;;;;;;;7.63;4.53;;;1.90;83.00;;;;;;5114644;28;20043;-77
2024/01/19 09:36:21;;;;;;;9.73;4.88;;;2.00;82.70;;;;;;5115299;28;20027;-77
2024/01/19 09:38:47;;;;;;;10.65;5.15;;;2.00;82.30;;;;;;5114564;28;20129;-78
2024/01/19 09:41:26;;;;;;;8.75;5.10;;;2.00;82.50;;;;;;5115104;28;20123;-78
2024/01/19 09:43:55;;;;;;;8.63;4.80;;;2.00;82.60;;;;;;5105022;28;20016;-78
2024/01/19 09:46:25;;;;;;;9.63;4.70;;;2.00;81.40;;;;;;5094306;28;20095;-77
2024/01/19 09:49:28;;;;;;;7.70;4.53;;;2.00;80.40;;;;;;5093041;28;20024;-78
2024/01/19 09:52:28;;;;;;;9.32;4.47;;;2.00;80.70;;;;;;5092492;28;20277;-77
2024/01/19 09:54:54;;;;;;;10.50;4.20;;;2.00;80.90;;;;;;5093975;28;20036;-77
2024/01/19 09:57:20;;;;;;;7.18;4.60;;;2.00;80.20;;;;;;5094309;28;20022;-77
2024/01/19 09:59:46;;;;;;;7.07;4.57;;;2.00;80.00;;;;;;5093499;28;20471;-78
2024/01/19 10:02:15;;;;;;;14.60;5.13;;;2.00;79.80;;;;;;5094372;28;20028;-77
2024/01/19 10:04:41;;;;;;;9.48;4.80;;;2.00;80.10;;;;;;5092685;28;20027;-78
2024/01/19 10:07:08;;;;;;;9.05;4.80;;;2.00;79.90;;;;;;5094081;28;20373;-77
2024/01/19 10:09:34;;;;;;;8.73;4.93;;;2.00;79.10;;;;;;5094479;28;20043;-77
2024/01/19 10:12:00;;;;;;;8.55;4.93;;;2.10;78.70;;;;;;5094571;28;20036;-77
2024/01/19 10:14:26;;;;;;;9.73;5.05;;;2.10;78.60;;;;;;5094364;28;20161;-77
2024/01/19 10:16:52;;;;;;;8.75;4.80;;;2.10;79.00;;;;;;5093568;28;20548;-77
2024/01/19 10:19:22;;;;;;;10.35;5.28;;;2.10;78.50;;;;;;5092756;28;20028;-77
2024/01/19 10:21:50;;;;;;;6.88;5.03;;;2.10;78.10;;;;;;5093594;28;20039;-76
2024/01/19 10:24:19;;;;;;;9.88;4.65;;;2.10;78.20;;;;;;5094171;28;20036;-77
2024/01/19 10:26:57;;;;;;;8.02;4.55;;;2.10;78.20;;;;;;5094029;28;20431;-77
2024/01/19 10:29:23;;;;;;;6.90;4.60;;;2.10;77.80;;;;;;5093786;28;20059;-78
2024/01/19 10:31:51;;;;;;;7.63;4.72;;;2.10;77.60;;;;;;5093143;28;20117;-78
2024/01/19 10:34:20;;;;;;;7.85;4.53;;;2.10;77.50;;;;;;5093532;28;20028;-78
2024/01/19 10:36:47;;;;;;;7.95;4.60;;;2.20;76.90;;;;;;5093169;28;20101;-78
2024/01/19 10:39:21;;;;;;;8.43;5.03;;;2.20;76.90;;;;;;5093400;28;20028;-78
2024/01/19 10:41:47;;;;;;;10.10;5.05;;;2.20;75.30;;;;;;5093261;28;20028;-79
2024/01/19 10:44:20;;;;;;;8.13;5.25;;;2.20;75.10;;;;;;5093280;28;20103;-78
2024/01/19 10:46:46;;;;;;;9.88;5.38;;;2.20;75.60;;;;;;5093143;28;20082;-78
2024/01/19 10:49:16;;;;;;;10.30;4.68;;;2.20;76.00;;;;;;5093484;28;20377;-77
2024/01/19 10:51:43;;;;;;;8.98;5.03;;;2.20;76.10;;;;;;5091328;28;20031;-78
2024/01/19 10:54:23;;;;;;;8.40;5.07;;;2.20;76.00;;;;;;5093523;28;20024;-76
2024/01/19 10:56:50;;;;;;;9.93;5.40;;;2.20;75.60;;;;;;5092663;28;20028;-78
2024/01/19 10:59:16;;;;;;;7.70;4.72;;;2.20;76.10;;;;;;5093482;28;20061;-77
2024/01/19 11:01:42;;;;;;;8.10;4.78;;;2.20;76.10;;;;;;5092959;28;20028;-79
2024/01/19 11:04:09;;;;;;;12.88;5.55;;;2.30;75.50;;;;;;5091720;28;20035;-78
2024/01/19 11:06:39;;;;;;;8.38;4.78;;;2.30;75.40;;;;;;5092727;28;20377;-77
2024/01/19 11:09:08;;;;;;;8.65;4.47;;;2.30;74.00;;;;;;5092694;28;20479;-78
2024/01/19 11:11:55;;;;;;;6.55;4.00;;;2.30;73.20;;;;;;5092633;28;20085;-78
2024/01/19 11:14:24;;;;;;;6.97;4.07;;;2.30;72.40;;;;;;5092463;28;20024;-78
2024/01/19 11:16:52;;;;;;;7.65;4.60;;;2.40;72.00;;;;;;5090521;28;20024;-77
2024/01/19 11:19:20;;;;;;;7.22;3.90;;;2.40;71.70;;;;;;5092686;28;20077;-77
2024/01/19 11:21:46;;;;;;;9.18;4.25;;;2.40;71.70;;;;;;5092172;28;20039;-79
2024/01/19 11:24:17;;;;;;;7.78;4.47;;;2.30;71.60;;;;;;5092469;28;20393;-77
2024/01/19 11:27:06;;;;;;;6.55;4.05;;;2.40;72.40;;;;;;5092424;28;20020;-78
2024/01/19 11:29:41;;;;;;;7.97;4.60;;;2.40;72.70;;;;;;5091910;28;20028;-78
2024/01/19 11:32:07;;;;;;;7.13;4.53;;;2.40;72.60;;;;;;5090545;28;20036;-78
2024/01/19 11:34:52;;;;;;;7.63;4.38;;;2.50;72.00;;;;;;5092268;28;20020;-78
2024/01/19 11:37:46;;;;;;;7.68;4.18;;;2.50;71.70;;;;;;5090756;28;20024;-77
2024/01/19 11:40:24;;;;;;;8.65;4.40;;;2.50;72.50;;;;;;5092223;28;20100;-79
2024/01/19 11:42:50;;;;;;;9.35;4.05;;;2.50;72.30;;;;;;5091965;28;20472;-78
2024/01/19 11:45:28;;;;;;;5.97;3.85;;;2.50;71.40;;;;;;5092203;28;20035;-78
2024/01/19 11:47:54;;;;;;;9.00;3.80;;;2.50;71.50;;;;;;5091909;28;20476;-78
2024/01/19 11:50:43;;;;;;;5.80;4.05;;;2.50;71.60;;;;;;5091812;28;20036;-77
2024/01/19 11:53:10;;;;;;;7.10;4.15;;;2.50;71.90;;;;;;5091712;28;20028;-78
2024/01/19 11:55:38;;;;;;;7.53;3.97;;;2.60;72.20;;;;;;5092111;28;20062;-77
2024/01/19 11:58:26;;;;;;;8.00;4.28;;;2.60;71.80;;;;;;5090176;28;20122;-78
2024/01/19 12:00:55;;;;;;;5.53;3.63;;;2.60;71.20;;;;;;5090115;28;20052;-77
2024/01/19 12:03:21;;;;;;;8.40;4.25;;;2.70;71.10;;;;;;5091894;28;20024;-76
2024/01/19 12:05:48;;;;;;;7.07;3.38;;;2.70;71.30;;;;;;5091269;28;20157;-78
2024/01/19 12:08:14;;;;;;;8.27;3.58;;;2.70;69.80;;;;;;5091507;28;20024;-78
2024/01/19 12:10:39;;;;;;;9.90;3.53;;;2.70;69.40;;;;;;5092083;28;20039;-77
2024/01/19 12:13:05;;;;;;;6.85;3.42;;;2.70;68.50;;;;;;5091147;28;20081;-78
2024/01/19 12:15:30;;;;;;;5.82;3.42;;;2.70;68.80;;;;;;5091684;28;20484;-77
2024/01/19 12:17:56;;;;;;;6.50;3.38;;;2.60;68.90;;;;;;5089997;28;20031;-77
2024/01/19 12:20:23;;;;;;;8.38;3.25;;;2.60;69.00;;;;;;5091668;28;20058;-77
2024/01/19 12:22:53;;;;;;;7.93;3.47;;;2.60;69.10;;;;;;5090942;28;20422;-77
2024/01/19 12:25:20;;;;;;;5.07;3.58;;;2.60;69.00;;;;;;5091615;28;20124;-78
2024/01/19 12:27:47;;;;;;;3.58;2.80;;;2.60;69.20;;;;;;5091592;28;20020;-78
2024/01/19 12:30:19;;;;;;;7.68;3.50;;;2.60;69.40;;;;;;5090231;28;20408;-78
2024/01/19 12:32:46;;;;;;;12.73;3.95;;;2.50;69.00;;;;;;5091654;28;20024;-77
2024/01/19 12:35:12;;;;;;;6.10;3.35;;;2.50;69.00;;;;;;5091613;28;20024;-77
2024/01/19 12:37:38;;;;;;;7.00;3.33;;;2.50;68.90;;;;;;5091328;28;20490;-77
2024/01/19 12:40:10;;;;;;;6.45;3.42;;;2.50;69.10;;;;;;5092270;28;20055;-79
2024/01/19 12:42:36;;;;;;;6.45;3.95;;;2.50;69.10;;;;;;5095243;28;20035;-77
2024/01/19 12:45:03;;;;;;;6.10;3.58;;;2.50;69.50;;;;;;5093695;28;20028;-79
2024/01/19 12:47:28;;;;;;;8.05;3.95;;;2.50;69.90;;;;;;5095493;28;20043;-78
2024/01/19 12:49:57;;;;;;;7.20;3.53;;;2.50;70.40;;;;;;5095288;28;20457;-78
2024/01/19 12:52:23;;;;;;;6.50;3.83;;;2.50;70.40;;;;;;5095439;28;20158;-77
2024/01/19 12:54:49;;;;;;;6.60;3.70;;;2.50;69.70;;;;;;5095490;28;20106;-77